createdAt,value
2018-03-28T00:00:13.488Z,14.33
2018-03-28T00:02:43.567Z,15.53
2018-03-28T00:05:12.276Z,13.83
2018-03-28T00:07:41.027Z,13.90
2018-03-28T00:10:09.625Z,17.60
2018-03-28T00:12:38.285Z,17.40
2018-03-28T00:15:06.915Z,17.90
2018-03-28T00:17:35.539Z,15.33
2018-03-28T00:20:04.401Z,16.50
2018-03-28T00:22:33.078Z,17.67
2018-03-28T00:25:01.540Z,16.60
2018-03-28T00:27:30.045Z,15.83
2018-03-28T00:29:58.719Z,16.00
2018-03-28T00:32:27.236Z,16.47
2018-03-28T00:34:55.785Z,19.97
2018-03-28T00:37:24.412Z,20.40
2018-03-28T00:39:53.126Z,19.10
2018-03-28T00:42:21.857Z,18.30
2018-03-28T00:44:50.428Z,20.30
2018-03-28T00:47:18.903Z,20.40
2018-03-28T00:49:47.752Z,18.53
2018-03-28T00:52:16.250Z,17.10
2018-03-28T00:54:44.725Z,19.63
2018-03-28T00:57:13.219Z,19.20
2018-03-28T00:59:41.720Z,16.00
2018-03-28T01:02:10.218Z,19.97
2018-03-28T01:04:39.092Z,27.17
2018-03-28T01:07:08.306Z,17.40
2018-03-28T01:09:37.174Z,18.80
2018-03-28T01:12:05.856Z,21.00
2018-03-28T01:14:34.408Z,19.17
2018-03-28T01:17:02.912Z,20.50
2018-03-28T01:19:32.783Z,21.50
2018-03-28T01:22:01.361Z,17.87
2018-03-28T01:24:29.784Z,17.70
2018-03-28T01:26:58.314Z,20.20
2018-03-28T01:29:26.813Z,21.97
2018-03-28T01:31:55.268Z,21.90
2018-03-28T01:34:23.861Z,21.03
2018-03-28T01:36:52.437Z,18.07
2018-03-28T01:39:21.027Z,22.57
2018-03-28T01:41:49.797Z,24.20
2018-03-28T01:44:18.256Z,26.53
2018-03-28T01:46:46.700Z,19.70
2018-03-28T01:49:15.147Z,22.63
2018-03-28T01:51:43.776Z,22.50
2018-03-28T01:54:12.581Z,18.90
2018-03-28T01:56:41.050Z,20.43
2018-03-28T01:59:09.476Z,21.17
2018-03-28T02:01:38.047Z,23.07
2018-03-28T02:04:06.916Z,21.10
2018-03-28T02:06:37.107Z,25.10
2018-03-28T02:09:06.503Z,23.47
2018-03-28T02:11:35.114Z,20.63
2018-03-28T02:14:03.797Z,24.27
2018-03-28T02:16:39.376Z,19.60
2018-03-28T02:19:08.063Z,23.47
2018-03-28T02:21:36.513Z,26.87
2018-03-28T02:24:05.057Z,26.30
2018-03-28T02:26:33.943Z,24.37
2018-03-28T02:29:02.784Z,24.20
2018-03-28T02:31:31.360Z,25.13
2018-03-28T02:33:59.864Z,24.20
2018-03-28T02:36:28.348Z,24.87
2018-03-28T02:38:57.150Z,31.53
2018-03-28T02:41:25.635Z,27.67
2018-03-28T02:43:54.115Z,28.10
2018-03-28T02:46:22.935Z,27.13
2018-03-28T02:48:52.119Z,32.07
2018-03-28T02:51:21.509Z,33.03
2018-03-28T02:53:51.027Z,29.03
2018-03-28T02:56:20.088Z,31.47
2018-03-28T02:58:49.229Z,31.53
2018-03-28T03:01:18.458Z,31.50
2018-03-28T03:03:47.586Z,33.33
2018-03-28T03:06:16.862Z,30.67
2018-03-28T03:08:45.689Z,31.53
2018-03-28T03:11:15.010Z,33.13
2018-03-28T03:13:44.362Z,32.20
2018-03-28T03:16:13.683Z,37.30
2018-03-28T03:18:42.771Z,35.40
2018-03-28T03:21:12.038Z,33.77
2018-03-28T03:23:41.544Z,31.93
2018-03-28T03:26:10.626Z,33.37
2018-03-28T03:28:39.950Z,39.07
2018-03-28T03:31:09.515Z,37.10
2018-03-28T03:33:38.797Z,30.43
2018-03-28T03:36:07.904Z,35.03
2018-03-28T03:38:36.905Z,33.20
2018-03-28T03:41:06.539Z,30.50
2018-03-28T03:43:35.935Z,40.10
2018-03-28T03:46:05.339Z,36.40
2018-03-28T03:48:34.595Z,33.60
2018-03-28T03:51:03.568Z,34.30
2018-03-28T03:53:32.756Z,37.20
2018-03-28T03:56:02.326Z,32.83
2018-03-28T03:58:31.378Z,34.67
2018-03-28T04:03:55.768Z,39.80
2018-03-28T04:06:24.446Z,33.27
2018-03-28T04:08:52.989Z,34.13
2018-03-28T04:11:21.978Z,35.00
2018-03-28T04:13:50.512Z,33.73
2018-03-28T04:16:19.422Z,36.10
2018-03-28T04:18:47.985Z,35.40
2018-03-28T04:21:16.745Z,34.93
2018-03-28T04:23:45.404Z,40.03
2018-03-28T04:26:14.099Z,39.57
2018-03-28T04:28:42.787Z,36.97
2018-03-28T04:31:13.349Z,43.03
2018-03-28T04:33:42.424Z,39.50
2018-03-28T04:36:11.087Z,41.47
2018-03-28T04:38:39.674Z,41.43
2018-03-28T04:41:08.301Z,39.60
2018-03-28T04:43:36.789Z,38.17
2018-03-28T04:46:05.304Z,46.40
2018-03-28T04:48:33.779Z,40.03
2018-03-28T04:51:02.265Z,43.73
2018-03-28T04:53:31.080Z,40.37
2018-03-28T04:55:59.679Z,39.23
2018-03-28T04:58:28.463Z,42.03
2018-03-28T05:00:57.217Z,35.67
2018-03-28T05:03:26.052Z,38.77
2018-03-28T05:05:54.600Z,38.10
2018-03-28T05:08:23.368Z,43.30
2018-03-28T05:10:51.942Z,46.90
2018-03-28T05:13:20.437Z,47.07
2018-03-28T05:15:49.081Z,40.23
2018-03-28T05:18:17.958Z,42.07
2018-03-28T05:20:46.624Z,48.10
2018-03-28T05:23:15.432Z,43.60
2018-03-28T05:25:43.928Z,52.73
2018-03-28T05:28:12.487Z,47.73
2018-03-28T05:30:41.142Z,48.47
2018-03-28T05:33:09.799Z,45.03
2018-03-28T05:35:38.361Z,45.90
2018-03-28T05:38:07.860Z,46.83
2018-03-28T05:40:36.459Z,52.23
2018-03-28T05:43:05.375Z,48.97
2018-03-28T05:45:33.981Z,53.10
2018-03-28T05:48:02.509Z,45.00
2018-03-28T05:50:31.336Z,51.30
2018-03-28T05:52:59.916Z,52.27
2018-03-28T05:55:28.677Z,55.33
2018-03-28T05:57:57.366Z,56.90
2018-03-28T06:00:26.133Z,52.10
2018-03-28T06:02:54.589Z,58.10
2018-03-28T06:05:23.381Z,59.33
2018-03-28T06:07:52.511Z,61.40
2018-03-28T06:10:21.568Z,57.70
2018-03-28T06:12:50.297Z,58.00
2018-03-28T06:15:18.836Z,59.30
2018-03-28T06:17:47.387Z,68.83
2018-03-28T06:20:15.900Z,59.63
2018-03-28T06:22:44.884Z,56.07
2018-03-28T06:25:13.516Z,75.03
2018-03-28T06:27:42.204Z,65.67
2018-03-28T06:30:10.730Z,65.20
2018-03-28T06:32:39.812Z,58.13
2018-03-28T06:35:08.485Z,69.87
2018-03-28T06:37:37.066Z,63.07
2018-03-28T06:40:06.065Z,62.77
2018-03-28T06:42:34.577Z,73.80
2018-03-28T06:45:03.688Z,74.90
2018-03-28T06:47:32.541Z,63.27
2018-03-28T06:50:01.932Z,64.90
2018-03-28T06:52:31.205Z,67.60
2018-03-28T06:54:59.931Z,68.20
2018-03-28T06:57:34.837Z,70.40
2018-03-28T07:00:03.656Z,76.57
2018-03-28T07:02:32.235Z,73.60
2018-03-28T07:05:00.904Z,72.27
2018-03-28T07:07:29.503Z,67.97
2018-03-28T07:09:58.113Z,69.93
2018-03-28T07:12:26.624Z,72.03
2018-03-28T07:14:55.145Z,78.43
2018-03-28T07:17:23.762Z,86.03
2018-03-28T07:19:52.417Z,89.10
2018-03-28T07:22:22.135Z,95.37
2018-03-28T07:24:51.388Z,91.77
2018-03-28T07:27:21.313Z,89.80
2018-03-28T07:29:50.432Z,83.73
2018-03-28T07:32:19.264Z,84.77
2018-03-28T07:34:47.912Z,81.50
2018-03-28T07:37:17.045Z,77.73
2018-03-28T07:39:46.740Z,93.10
2018-03-28T07:42:15.750Z,85.00
2018-03-28T07:44:44.439Z,86.70
2018-03-28T07:47:12.938Z,95.40
2018-03-28T07:49:41.621Z,87.03
2018-03-28T07:52:10.134Z,91.17
2018-03-28T07:54:38.775Z,79.80
2018-03-28T07:57:07.553Z,90.63
2018-03-28T07:59:36.120Z,82.13
2018-03-28T08:02:04.812Z,93.90
2018-03-28T08:04:33.444Z,87.17
2018-03-28T08:07:06.069Z,87.97
2018-03-28T08:09:34.767Z,100.43
2018-03-28T08:12:03.712Z,93.30
2018-03-28T08:14:32.624Z,86.50
2018-03-28T08:17:01.456Z,84.27
2018-03-28T08:19:30.024Z,89.63
2018-03-28T08:21:59.015Z,88.00
2018-03-28T08:24:27.499Z,88.33
2018-03-28T08:26:56.213Z,92.80
2018-03-28T08:29:24.841Z,89.37
2018-03-28T08:31:53.375Z,89.60
2018-03-28T08:34:22.216Z,89.43
2018-03-28T08:36:50.741Z,99.80
2018-03-28T08:39:19.251Z,88.53
2018-03-28T08:41:47.750Z,87.80
2018-03-28T08:44:16.332Z,92.33
2018-03-28T08:46:45.044Z,89.63
2018-03-28T08:49:14.282Z,90.83
2018-03-28T08:51:42.816Z,94.90
2018-03-28T08:54:11.284Z,88.47
2018-03-28T08:56:39.812Z,97.83
2018-03-28T08:59:08.312Z,104.97
2018-03-28T09:01:36.841Z,92.23
2018-03-28T09:04:05.440Z,104.67
2018-03-28T09:06:34.120Z,102.20
2018-03-28T09:09:02.597Z,98.80
2018-03-28T09:11:31.345Z,103.13
2018-03-28T09:14:00.667Z,99.17
2018-03-28T09:16:29.301Z,106.90
2018-03-28T09:18:58.154Z,102.93
2018-03-28T09:21:26.874Z,103.73
2018-03-28T09:23:55.509Z,109.83
2018-03-28T09:26:24.835Z,118.20
2018-03-28T09:28:53.488Z,118.53
2018-03-28T09:31:22.004Z,113.63
2018-03-28T09:33:50.521Z,116.23
2018-03-28T09:36:19.050Z,102.43
2018-03-28T09:38:47.897Z,105.17
2018-03-28T09:41:16.432Z,120.73
2018-03-28T09:43:45.101Z,107.47
2018-03-28T09:46:13.764Z,111.80
2018-03-28T09:48:48.857Z,107.17
2018-03-28T09:51:17.420Z,105.23
2018-03-28T09:53:45.997Z,112.33
2018-03-28T09:56:14.598Z,108.33
2018-03-28T09:58:43.295Z,106.20
2018-03-28T10:01:15.991Z,105.43
2018-03-28T10:03:49.078Z,108.87
2018-03-28T10:06:17.605Z,107.77
2018-03-28T10:08:46.432Z,112.20
2018-03-28T10:11:14.936Z,107.60
2018-03-28T10:13:43.686Z,99.83
2018-03-28T10:16:12.281Z,108.90
2018-03-28T10:18:41.135Z,101.43
2018-03-28T10:21:09.661Z,112.67
2018-03-28T10:23:39.217Z,94.87
2018-03-28T10:26:08.056Z,95.93
2018-03-28T10:28:36.763Z,99.00
2018-03-28T10:31:05.843Z,96.07
2018-03-28T10:33:34.710Z,91.67
2018-03-28T10:36:08.310Z,101.27
2018-03-28T10:38:38.906Z,93.17
2018-03-28T10:41:07.529Z,97.97
2018-03-28T10:43:36.169Z,98.00
2018-03-28T10:46:04.896Z,90.70
2018-03-28T10:48:33.540Z,90.17
2018-03-28T10:51:02.159Z,98.13
2018-03-28T10:53:30.616Z,89.47
2018-03-28T10:55:59.103Z,84.77
2018-03-28T10:58:27.605Z,77.70
2018-03-28T11:00:56.314Z,90.10
2018-03-28T11:03:29.013Z,86.70
2018-03-28T11:05:59.912Z,81.20
2018-03-28T11:08:28.771Z,80.93
2018-03-28T11:10:57.384Z,80.80
2018-03-28T11:13:26.052Z,83.10
2018-03-28T11:15:55.160Z,81.90
2018-03-28T11:18:23.663Z,85.23
2018-03-28T11:20:52.507Z,78.40
2018-03-28T11:23:20.976Z,81.63
2018-03-28T11:25:49.703Z,79.40
2018-03-28T11:28:18.373Z,80.93
2018-03-28T11:30:47.118Z,84.67
2018-03-28T11:33:16.148Z,76.27
2018-03-28T11:35:44.896Z,88.27
2018-03-28T11:38:13.707Z,86.27
2018-03-28T11:40:42.472Z,91.17
2018-03-28T11:43:11.092Z,81.20
2018-03-28T11:45:39.989Z,92.43
2018-03-28T11:48:09.185Z,94.20
2018-03-28T11:50:37.793Z,94.23
2018-03-28T11:53:06.431Z,87.33
2018-03-28T11:55:35.417Z,85.87
2018-03-28T11:58:04.025Z,83.17
2018-03-28T12:00:32.571Z,84.37
2018-03-28T12:03:01.606Z,89.53
2018-03-28T12:05:30.177Z,101.60
2018-03-28T12:07:58.690Z,103.53
2018-03-28T12:10:27.681Z,89.50
2018-03-28T12:12:56.145Z,94.70
2018-03-28T12:15:24.720Z,90.43
2018-03-28T12:17:53.312Z,89.47
2018-03-28T12:20:22.095Z,91.17
2018-03-28T12:22:50.601Z,85.27
2018-03-28T12:25:19.147Z,86.67
2018-03-28T12:27:47.645Z,79.90
2018-03-28T12:30:16.158Z,78.27
2018-03-28T12:32:44.700Z,75.37
2018-03-28T12:35:13.326Z,74.20
2018-03-28T12:37:42.189Z,73.00
2018-03-28T12:40:10.735Z,74.10
2018-03-28T12:42:39.259Z,74.23
2018-03-28T12:45:07.849Z,69.13
2018-03-28T12:47:36.319Z,67.30
2018-03-28T12:50:04.886Z,59.80
2018-03-28T12:52:33.653Z,62.53
2018-03-28T12:55:02.381Z,63.10
2018-03-28T12:57:31.131Z,61.77
2018-03-28T12:59:59.786Z,69.97
2018-03-28T13:02:28.766Z,64.57
2018-03-28T13:04:57.316Z,60.20
2018-03-28T13:07:25.855Z,70.17
2018-03-28T13:09:54.475Z,62.30
2018-03-28T13:12:23.214Z,65.50
2018-03-28T13:14:51.933Z,59.23
2018-03-28T13:17:20.479Z,67.00
2018-03-28T13:19:48.996Z,64.83
2018-03-28T13:22:17.725Z,57.30
2018-03-28T13:24:46.684Z,60.13
2018-03-28T13:27:15.556Z,58.03
2018-03-28T13:29:44.056Z,59.67
2018-03-28T13:32:12.879Z,57.47
2018-03-28T13:34:41.396Z,57.80
2018-03-28T13:37:09.901Z,61.47
2018-03-28T13:39:38.746Z,62.00
2018-03-28T13:42:07.239Z,62.37
2018-03-28T13:44:35.737Z,56.63
2018-03-28T13:47:04.272Z,52.77
2018-03-28T13:49:32.852Z,62.00
2018-03-28T13:52:01.712Z,55.20
2018-03-28T13:54:30.405Z,62.43
2018-03-28T13:56:59.126Z,54.37
2018-03-28T13:59:27.815Z,58.73
2018-03-28T14:01:56.328Z,64.10
2018-03-28T14:04:25.294Z,60.83
2018-03-28T14:06:53.920Z,68.47
2018-03-28T14:09:22.497Z,70.83
2018-03-28T14:11:51.027Z,65.53
2018-03-28T14:14:19.528Z,56.30
2018-03-28T14:16:48.442Z,59.07
2018-03-28T14:19:16.933Z,60.97
2018-03-28T14:21:46.054Z,51.33
2018-03-28T14:24:14.633Z,51.43
2018-03-28T14:26:43.129Z,59.97
2018-03-28T14:29:11.809Z,62.83
2018-03-28T14:31:40.353Z,60.97
2018-03-28T14:34:09.000Z,55.30
2018-03-28T14:36:37.498Z,56.70
2018-03-28T14:39:06.298Z,56.60
2018-03-28T14:41:35.065Z,60.83
2018-03-28T14:44:03.712Z,57.30
2018-03-28T14:46:32.429Z,57.50
2018-03-28T14:49:00.916Z,59.67
2018-03-28T14:51:29.436Z,57.33
2018-03-28T14:53:58.067Z,61.80
2018-03-28T14:56:27.002Z,63.13
2018-03-28T14:58:55.593Z,51.37
2018-03-28T15:01:24.108Z,61.33
2018-03-28T15:03:52.805Z,62.97
2018-03-28T15:06:21.312Z,57.60
2018-03-28T15:08:49.977Z,57.00
2018-03-28T15:11:18.598Z,57.90
2018-03-28T15:13:47.078Z,59.10
2018-03-28T15:16:15.563Z,58.77
2018-03-28T15:18:44.841Z,59.87
2018-03-28T15:21:13.411Z,59.03
2018-03-28T15:23:41.935Z,64.07
2018-03-28T15:26:10.496Z,62.97
2018-03-28T15:28:39.122Z,58.73
2018-03-28T15:31:07.745Z,57.70
2018-03-28T15:33:36.244Z,53.80
2018-03-28T15:36:04.925Z,64.73
2018-03-28T15:38:33.615Z,62.40
2018-03-28T15:41:02.312Z,66.93
2018-03-28T15:43:30.827Z,62.33
2018-03-28T15:45:59.339Z,53.63
2018-03-28T15:48:27.866Z,61.43
2018-03-28T15:50:56.384Z,62.70
2018-03-28T15:53:25.902Z,58.83
2018-03-28T15:55:54.616Z,59.20
2018-03-28T15:58:23.282Z,63.10
2018-03-28T16:00:52.377Z,66.30
2018-03-28T16:03:21.028Z,60.80
2018-03-28T16:05:49.504Z,52.83
2018-03-28T16:08:18.192Z,61.47
2018-03-28T16:10:46.937Z,58.73
2018-03-28T16:13:15.436Z,57.77
2018-03-28T16:15:43.948Z,69.37
2018-03-28T16:18:12.725Z,66.57
2018-03-28T16:20:41.281Z,63.30
2018-03-28T16:23:09.952Z,71.63
2018-03-28T16:25:38.649Z,62.80
2018-03-28T16:28:07.118Z,66.20
2018-03-28T16:30:35.627Z,58.80
2018-03-28T16:33:04.323Z,61.43
2018-03-28T16:35:32.951Z,54.30
2018-03-28T16:38:01.581Z,63.80
2018-03-28T16:40:30.144Z,62.83
2018-03-28T16:42:59.603Z,65.70
2018-03-28T16:45:28.495Z,69.60
2018-03-28T16:47:56.961Z,69.27
2018-03-28T16:50:25.674Z,70.90
2018-03-28T16:52:54.234Z,70.13
2018-03-28T16:55:22.879Z,67.87
2018-03-28T16:57:51.409Z,76.77
2018-03-28T17:00:19.940Z,75.17
2018-03-28T17:02:48.446Z,77.10
2018-03-28T17:05:17.009Z,74.07
2018-03-28T17:07:45.488Z,84.63
2018-03-28T17:10:14.062Z,75.20
2018-03-28T17:12:42.597Z,78.93
2018-03-28T17:15:11.363Z,73.20
2018-03-28T17:17:39.961Z,80.63
2018-03-28T17:20:08.495Z,71.63
2018-03-28T17:22:36.985Z,77.77
2018-03-28T17:25:05.666Z,76.63
2018-03-28T17:27:34.416Z,84.07
2018-03-28T17:30:03.249Z,86.00
2018-03-28T17:32:31.997Z,90.13
2018-03-28T17:35:00.458Z,83.27
2018-03-28T17:37:28.989Z,83.73
2018-03-28T17:39:57.508Z,82.03
2018-03-28T17:42:26.082Z,86.93
2018-03-28T17:44:54.943Z,74.50
2018-03-28T17:47:23.586Z,84.57
2018-03-28T17:49:52.415Z,77.83
2018-03-28T17:52:20.991Z,90.87
2018-03-28T17:54:49.727Z,85.23
2018-03-28T17:57:18.408Z,85.37
2018-03-28T17:59:47.150Z,88.90
2018-03-28T18:02:15.956Z,83.40
2018-03-28T18:04:44.703Z,84.80
2018-03-28T18:07:13.300Z,91.97
2018-03-28T18:09:41.963Z,92.93
2018-03-28T18:12:10.616Z,97.87
2018-03-28T18:14:39.175Z,94.10
2018-03-28T18:17:08.047Z,95.00
2018-03-28T18:19:36.727Z,94.53
2018-03-28T18:22:05.433Z,91.27
2018-03-28T18:24:34.072Z,81.50
2018-03-28T18:27:02.642Z,87.57
2018-03-28T18:29:31.513Z,80.73
2018-03-28T18:32:00.193Z,93.23
2018-03-28T18:34:28.711Z,89.47
2018-03-28T18:36:57.269Z,93.47
2018-03-28T18:39:26.089Z,96.23
2018-03-28T18:41:54.899Z,94.93
2018-03-28T18:44:23.464Z,102.50
2018-03-28T18:46:51.961Z,97.50
2018-03-28T18:49:20.462Z,99.60
2018-03-28T18:51:49.153Z,107.17
2018-03-28T18:54:17.710Z,107.20
2018-03-28T18:56:46.366Z,96.53
2018-03-28T18:59:14.828Z,95.73
2018-03-28T19:01:43.466Z,99.60
2018-03-28T19:04:11.969Z,96.53
2018-03-28T19:06:40.477Z,105.30
2018-03-28T19:09:09.016Z,100.60
2018-03-28T19:11:37.673Z,99.37
2018-03-28T19:14:06.136Z,97.13
2018-03-28T19:16:34.681Z,101.67
2018-03-28T19:19:03.205Z,100.80
2018-03-28T19:21:31.943Z,101.47
2018-03-28T19:24:00.412Z,104.20
2018-03-28T19:26:28.920Z,105.27
2018-03-28T19:28:57.547Z,96.93
2018-03-28T19:31:26.260Z,89.03
2018-03-28T19:33:55.161Z,101.13
2018-03-28T19:36:23.925Z,97.63
2018-03-28T19:38:52.535Z,98.77
2018-03-28T19:41:21.427Z,114.30
2018-03-28T19:43:49.901Z,118.07
2018-03-28T19:46:18.393Z,118.67
2018-03-28T19:48:47.030Z,110.73
2018-03-28T19:51:15.769Z,109.80
2018-03-28T19:53:44.430Z,108.60
2018-03-28T19:56:12.988Z,111.27
2018-03-28T19:58:41.845Z,124.33
2018-03-28T20:01:11.405Z,108.83
2018-03-28T20:03:41.299Z,124.63
2018-03-28T20:06:11.105Z,129.83
2018-03-28T20:08:40.598Z,127.13
2018-03-28T20:11:09.856Z,125.67
2018-03-28T20:13:38.521Z,124.60
2018-03-28T20:16:08.027Z,122.13
2018-03-28T20:18:36.544Z,118.60
2018-03-28T20:21:05.755Z,125.73
2018-03-28T20:23:35.854Z,127.57
2018-03-28T20:26:11.550Z,121.33
2018-03-28T20:28:40.433Z,119.03
2018-03-28T20:31:09.080Z,118.80
2018-03-28T20:33:37.984Z,137.20
2018-03-28T20:36:06.658Z,130.87
2018-03-28T20:38:35.392Z,125.07
2018-03-28T20:41:04.064Z,129.20
2018-03-28T20:43:32.692Z,121.03
2018-03-28T20:46:01.419Z,119.57
2018-03-28T20:48:30.370Z,126.73
2018-03-28T20:50:59.012Z,123.73
2018-03-28T20:53:27.823Z,124.43
2018-03-28T20:55:56.588Z,115.47
2018-03-28T20:58:25.401Z,121.90
2018-03-28T21:00:53.920Z,134.50
2018-03-28T21:03:24.049Z,122.30
2018-03-28T21:05:55.260Z,117.07
2018-03-28T21:08:23.821Z,113.70
2018-03-28T21:10:52.547Z,100.40
2018-03-28T21:13:21.481Z,123.83
2018-03-28T21:15:50.122Z,112.17
2018-03-28T21:18:18.657Z,110.17
2018-03-28T21:20:47.488Z,111.57
2018-03-28T21:23:16.000Z,127.23
2018-03-28T21:25:44.652Z,122.47
2018-03-28T21:28:13.347Z,122.13
2018-03-28T21:30:44.254Z,107.37
2018-03-28T21:33:16.212Z,100.30
2018-03-28T21:35:45.232Z,108.90
2018-03-28T21:38:14.485Z,124.20
2018-03-28T21:40:43.014Z,102.03
2018-03-28T21:43:12.130Z,100.00
2018-03-28T21:45:41.368Z,106.63
2018-03-28T21:48:10.515Z,107.20
2018-03-28T21:50:39.318Z,101.03
2018-03-28T21:53:08.357Z,98.97
2018-03-28T21:55:44.210Z,91.63
2018-03-28T21:58:14.340Z,95.77
2018-03-28T22:00:42.983Z,90.77
2018-03-28T22:03:11.622Z,85.50
2018-03-28T22:05:40.303Z,85.40
2018-03-28T22:08:08.787Z,83.40
2018-03-28T22:10:37.295Z,82.17
2018-03-28T22:13:06.342Z,78.40
2018-03-28T22:15:35.215Z,86.90
2018-03-28T22:18:03.748Z,103.40
2018-03-28T22:20:32.867Z,91.10
2018-03-28T22:23:03.361Z,88.60
2018-03-28T22:25:32.587Z,91.47
2018-03-28T22:28:01.469Z,79.37
2018-03-28T22:30:30.100Z,84.40
2018-03-28T22:32:58.737Z,82.63
2018-03-28T22:35:27.426Z,90.17
2018-03-28T22:37:56.457Z,79.50
2018-03-28T22:40:25.189Z,75.57
2018-03-28T22:42:54.302Z,76.90
2018-03-28T22:45:22.965Z,66.40
2018-03-28T22:47:51.630Z,78.00
2018-03-28T22:50:20.351Z,73.00
2018-03-28T22:52:48.868Z,71.60
2018-03-28T22:55:17.506Z,68.90
2018-03-28T22:57:46.044Z,68.40
2018-03-28T23:00:14.582Z,73.87
2018-03-28T23:02:43.157Z,65.87
2018-03-28T23:05:11.689Z,78.33
2018-03-28T23:07:40.288Z,69.30
2018-03-28T23:10:08.851Z,72.57
2018-03-28T23:12:37.459Z,79.93
2018-03-28T23:15:06.200Z,80.90
2018-03-28T23:17:34.958Z,84.87
2018-03-28T23:20:03.474Z,79.70
2018-03-28T23:22:37.459Z,80.47
2018-03-28T23:25:06.249Z,80.30
2018-03-28T23:27:34.726Z,83.80
2018-03-28T23:30:03.381Z,78.07
2018-03-28T23:32:31.945Z,78.47
2018-03-28T23:35:00.481Z,80.70
2018-03-28T23:37:29.017Z,77.00
2018-03-28T23:39:57.721Z,81.53
2018-03-28T23:42:26.264Z,86.27
2018-03-28T23:44:54.765Z,80.67
2018-03-28T23:47:23.261Z,84.67
2018-03-28T23:49:51.781Z,83.93
2018-03-28T23:52:20.338Z,86.37
2018-03-28T23:54:49.103Z,86.00
2018-03-28T23:57:17.661Z,95.03
2018-03-28T23:59:46.150Z,93.47
